sensor_id;sensor_type;location;lat;lon;timestamp;P1;durP1;ratioP1;P2;durP2;ratioP2
20443;SDS011;10381;53.730;10.010;2022-12-15T00:03:39;127.45;;;110.75;;
20443;SDS011;10381;53.730;10.010;2022-12-15T00:08:04;131.02;;;117.53;;
20443;SDS011;10381;53.730;10.010;2022-12-15T00:12:24;123.85;;;111.50;;
20443;SDS011;10381;53.730;10.010;2022-12-15T00:16:43;121.35;;;108.38;;
20443;SDS011;10381;53.730;10.010;2022-12-15T00:21:02;130.52;;;110.05;;
20443;SDS011;10381;53.730;10.010;2022-12-15T00:25:21;125.88;;;112.95;;
20443;SDS011;10381;53.730;10.010;2022-12-15T00:29:39;129.77;;;116.80;;
20443;SDS011;10381;53.730;10.010;2022-12-15T00:33:58;134.85;;;120.05;;
20443;SDS011;10381;53.730;10.010;2022-12-15T00:38:17;134.20;;;116.13;;
20443;SDS011;10381;53.730;10.010;2022-12-15T00:42:36;133.40;;;117.45;;
20443;SDS011;10381;53.730;10.010;2022-12-15T00:46:37;127.57;;;114.13;;
20443;SDS011;10381;53.730;10.010;2022-12-15T00:50:55;129.23;;;116.22;;
20443;SDS011;10381;53.730;10.010;2022-12-15T00:54:55;129.97;;;116.27;;
20443;SDS011;10381;53.730;10.010;2022-12-15T00:59:15;133.43;;;119.28;;
20443;SDS011;10381;53.730;10.010;2022-12-15T01:03:34;134.32;;;120.78;;
20443;SDS011;10381;53.730;10.010;2022-12-15T01:07:53;133.75;;;120.80;;
20443;SDS011;10381;53.730;10.010;2022-12-15T01:12:12;137.30;;;122.60;;
20443;SDS011;10381;53.730;10.010;2022-12-15T01:16:31;132.30;;;118.43;;
20443;SDS011;10381;53.730;10.010;2022-12-15T01:20:53;137.65;;;120.78;;
20443;SDS011;10381;53.730;10.010;2022-12-15T01:25:05;130.65;;;117.88;;
20443;SDS011;10381;53.730;10.010;2022-12-15T01:29:07;130.52;;;116.85;;
20443;SDS011;10381;53.730;10.010;2022-12-15T01:33:07;127.85;;;114.53;;
20443;SDS011;10381;53.730;10.010;2022-12-15T01:37:08;129.90;;;116.73;;
20443;SDS011;10381;53.730;10.010;2022-12-15T01:41:15;127.10;;;113.57;;
20443;SDS011;10381;53.730;10.010;2022-12-15T01:49:28;129.43;;;116.30;;
20443;SDS011;10381;53.730;10.010;2022-12-15T01:53:31;126.55;;;113.65;;
20443;SDS011;10381;53.730;10.010;2022-12-15T01:57:34;124.38;;;112.20;;
20443;SDS011;10381;53.730;10.010;2022-12-15T02:01:35;127.50;;;114.18;;
20443;SDS011;10381;53.730;10.010;2022-12-15T02:05:36;123.88;;;111.57;;
20443;SDS011;10381;53.730;10.010;2022-12-15T02:09:38;129.45;;;114.68;;
20443;SDS011;10381;53.730;10.010;2022-12-15T02:13:48;131.15;;;117.80;;
20443;SDS011;10381;53.730;10.010;2022-12-15T02:31:37;129.77;;;112.97;;
20443;SDS011;10381;53.730;10.010;2022-12-15T02:39:56;117.45;;;105.22;;
20443;SDS011;10381;53.730;10.010;2022-12-15T02:43:57;116.43;;;103.88;;
20443;SDS011;10381;53.730;10.010;2022-12-15T02:52:14;114.55;;;101.95;;
20443;SDS011;10381;53.730;10.010;2022-12-15T02:56:43;110.43;;;98.97;;
20443;SDS011;10381;53.730;10.010;2022-12-15T03:00:56;114.93;;;95.50;;
20443;SDS011;10381;53.730;10.010;2022-12-15T03:05:01;108.60;;;97.53;;
20443;SDS011;10381;53.730;10.010;2022-12-15T03:09:02;106.68;;;95.25;;
20443;SDS011;10381;53.730;10.010;2022-12-15T03:13:03;109.65;;;97.63;;
20443;SDS011;10381;53.730;10.010;2022-12-15T03:17:03;109.57;;;98.00;;
20443;SDS011;10381;53.730;10.010;2022-12-15T03:21:06;105.45;;;93.55;;
20443;SDS011;10381;53.730;10.010;2022-12-15T03:25:06;112.30;;;98.93;;
20443;SDS011;10381;53.730;10.010;2022-12-15T03:29:07;112.25;;;100.15;;
20443;SDS011;10381;53.730;10.010;2022-12-15T03:33:07;118.73;;;103.73;;
20443;SDS011;10381;53.730;10.010;2022-12-15T03:37:07;115.37;;;102.93;;
20443;SDS011;10381;53.730;10.010;2022-12-15T03:41:08;114.55;;;102.28;;
20443;SDS011;10381;53.730;10.010;2022-12-15T03:45:08;122.10;;;107.00;;
20443;SDS011;10381;53.730;10.010;2022-12-15T03:49:08;114.65;;;103.13;;
20443;SDS011;10381;53.730;10.010;2022-12-15T03:53:09;116.57;;;104.40;;
20443;SDS011;10381;53.730;10.010;2022-12-15T03:57:09;116.60;;;104.15;;
20443;SDS011;10381;53.730;10.010;2022-12-15T04:01:10;121.53;;;108.85;;
20443;SDS011;10381;53.730;10.010;2022-12-15T04:05:14;116.90;;;105.80;;
20443;SDS011;10381;53.730;10.010;2022-12-15T04:09:17;112.63;;;101.20;;
20443;SDS011;10381;53.730;10.010;2022-12-15T04:13:18;122.90;;;110.38;;
20443;SDS011;10381;53.730;10.010;2022-12-15T04:17:18;124.30;;;111.67;;
20443;SDS011;10381;53.730;10.010;2022-12-15T04:21:18;130.43;;;113.67;;
20443;SDS011;10381;53.730;10.010;2022-12-15T04:25:20;133.23;;;118.77;;
20443;SDS011;10381;53.730;10.010;2022-12-15T04:29:40;138.13;;;122.75;;
20443;SDS011;10381;53.730;10.010;2022-12-15T04:34:00;136.75;;;119.93;;
20443;SDS011;10381;53.730;10.010;2022-12-15T04:38:22;133.48;;;120.43;;
20443;SDS011;10381;53.730;10.010;2022-12-15T04:42:42;132.73;;;119.40;;
20443;SDS011;10381;53.730;10.010;2022-12-15T04:47:03;138.27;;;123.82;;
20443;SDS011;10381;53.730;10.010;2022-12-15T04:51:22;145.10;;;129.95;;
20443;SDS011;10381;53.730;10.010;2022-12-15T04:55:41;143.70;;;128.93;;
20443;SDS011;10381;53.730;10.010;2022-12-15T05:00:01;145.15;;;129.57;;
20443;SDS011;10381;53.730;10.010;2022-12-15T05:04:21;143.25;;;128.60;;
20443;SDS011;10381;53.730;10.010;2022-12-15T05:08:40;149.10;;;134.02;;
20443;SDS011;10381;53.730;10.010;2022-12-15T05:13:03;153.07;;;137.45;;
20443;SDS011;10381;53.730;10.010;2022-12-15T05:17:23;148.07;;;132.45;;
20443;SDS011;10381;53.730;10.010;2022-12-15T05:21:42;164.32;;;147.35;;
20443;SDS011;10381;53.730;10.010;2022-12-15T05:26:00;155.40;;;139.93;;
20443;SDS011;10381;53.730;10.010;2022-12-15T05:30:19;160.52;;;143.88;;
20443;SDS011;10381;53.730;10.010;2022-12-15T05:34:38;165.90;;;148.85;;
20443;SDS011;10381;53.730;10.010;2022-12-15T05:38:38;154.38;;;138.02;;
20443;SDS011;10381;53.730;10.010;2022-12-15T05:42:38;164.13;;;146.85;;
20443;SDS011;10381;53.730;10.010;2022-12-15T05:46:39;169.73;;;151.87;;
20443;SDS011;10381;53.730;10.010;2022-12-15T05:50:39;166.63;;;149.35;;
20443;SDS011;10381;53.730;10.010;2022-12-15T05:54:40;183.15;;;153.18;;
20443;SDS011;10381;53.730;10.010;2022-12-15T05:58:41;168.52;;;151.55;;
20443;SDS011;10381;53.730;10.010;2022-12-15T06:02:41;170.23;;;152.93;;
20443;SDS011;10381;53.730;10.010;2022-12-15T06:06:41;169.00;;;150.50;;
20443;SDS011;10381;53.730;10.010;2022-12-15T06:10:42;170.27;;;152.80;;
20443;SDS011;10381;53.730;10.010;2022-12-15T06:14:42;164.67;;;146.80;;
20443;SDS011;10381;53.730;10.010;2022-12-15T06:18:44;177.00;;;158.40;;
20443;SDS011;10381;53.730;10.010;2022-12-15T06:22:49;166.48;;;149.40;;
20443;SDS011;10381;53.730;10.010;2022-12-15T06:26:49;168.65;;;150.32;;
20443;SDS011;10381;53.730;10.010;2022-12-15T06:30:53;188.40;;;168.05;;
20443;SDS011;10381;53.730;10.010;2022-12-15T06:34:54;173.18;;;155.68;;
20443;SDS011;10381;53.730;10.010;2022-12-15T06:38:57;175.30;;;156.47;;
20443;SDS011;10381;53.730;10.010;2022-12-15T06:42:58;184.80;;;164.68;;
20443;SDS011;10381;53.730;10.010;2022-12-15T06:46:58;192.63;;;171.73;;
20443;SDS011;10381;53.730;10.010;2022-12-15T06:51:05;190.47;;;170.30;;
20443;SDS011;10381;53.730;10.010;2022-12-15T06:55:06;171.43;;;153.70;;
20443;SDS011;10381;53.730;10.010;2022-12-15T06:59:07;175.75;;;157.40;;
20443;SDS011;10381;53.730;10.010;2022-12-15T07:03:11;174.38;;;156.57;;
20443;SDS011;10381;53.730;10.010;2022-12-15T07:07:14;179.00;;;160.55;;
20443;SDS011;10381;53.730;10.010;2022-12-15T07:11:14;187.95;;;168.13;;
20443;SDS011;10381;53.730;10.010;2022-12-15T07:15:14;182.57;;;164.07;;
20443;SDS011;10381;53.730;10.010;2022-12-15T07:19:15;192.38;;;173.98;;
20443;SDS011;10381;53.730;10.010;2022-12-15T07:23:15;190.55;;;171.75;;
20443;SDS011;10381;53.730;10.010;2022-12-15T07:27:15;183.40;;;164.60;;
20443;SDS011;10381;53.730;10.010;2022-12-15T07:31:17;186.02;;;167.10;;
20443;SDS011;10381;53.730;10.010;2022-12-15T07:35:17;180.93;;;161.27;;
20443;SDS011;10381;53.730;10.010;2022-12-15T07:39:17;177.70;;;159.27;;
20443;SDS011;10381;53.730;10.010;2022-12-15T07:43:18;183.90;;;158.83;;
20443;SDS011;10381;53.730;10.010;2022-12-15T07:47:18;180.70;;;158.60;;
20443;SDS011;10381;53.730;10.010;2022-12-15T07:51:19;179.63;;;160.57;;
20443;SDS011;10381;53.730;10.010;2022-12-15T07:55:19;178.25;;;159.25;;
20443;SDS011;10381;53.730;10.010;2022-12-15T07:59:20;178.60;;;159.52;;
20443;SDS011;10381;53.730;10.010;2022-12-15T08:03:20;177.33;;;151.50;;
20443;SDS011;10381;53.730;10.010;2022-12-15T08:07:20;175.05;;;155.80;;
20443;SDS011;10381;53.730;10.010;2022-12-15T08:11:21;180.30;;;160.80;;
20443;SDS011;10381;53.730;10.010;2022-12-15T08:15:23;190.15;;;158.25;;
20443;SDS011;10381;53.730;10.010;2022-12-15T08:19:24;178.57;;;152.73;;
20443;SDS011;10381;53.730;10.010;2022-12-15T08:23:24;176.27;;;153.90;;
20443;SDS011;10381;53.730;10.010;2022-12-15T08:27:24;167.13;;;146.37;;
20443;SDS011;10381;53.730;10.010;2022-12-15T08:31:26;174.73;;;152.00;;
20443;SDS011;10381;53.730;10.010;2022-12-15T08:35:27;180.30;;;154.77;;
20443;SDS011;10381;53.730;10.010;2022-12-15T08:39:28;177.50;;;156.25;;
20443;SDS011;10381;53.730;10.010;2022-12-15T08:43:28;175.65;;;157.05;;
20443;SDS011;10381;53.730;10.010;2022-12-15T08:47:28;188.67;;;156.07;;
20443;SDS011;10381;53.730;10.010;2022-12-15T08:51:30;165.80;;;144.32;;
20443;SDS011;10381;53.730;10.010;2022-12-15T08:55:32;171.20;;;150.30;;
20443;SDS011;10381;53.730;10.010;2022-12-15T08:59:33;168.90;;;148.27;;
20443;SDS011;10381;53.730;10.010;2022-12-15T09:03:33;170.97;;;146.90;;
20443;SDS011;10381;53.730;10.010;2022-12-15T09:07:34;162.85;;;140.80;;
20443;SDS011;10381;53.730;10.010;2022-12-15T09:11:35;165.25;;;139.02;;
20443;SDS011;10381;53.730;10.010;2022-12-15T09:15:35;165.77;;;143.52;;
20443;SDS011;10381;53.730;10.010;2022-12-15T09:19:35;165.43;;;143.90;;
20443;SDS011;10381;53.730;10.010;2022-12-15T09:23:36;170.77;;;151.43;;
20443;SDS011;10381;53.730;10.010;2022-12-15T09:27:36;169.38;;;149.18;;
20443;SDS011;10381;53.730;10.010;2022-12-15T09:31:36;168.60;;;141.13;;
20443;SDS011;10381;53.730;10.010;2022-12-15T09:35:37;168.35;;;145.35;;
20443;SDS011;10381;53.730;10.010;2022-12-15T09:39:37;161.20;;;143.17;;
20443;SDS011;10381;53.730;10.010;2022-12-15T09:43:39;168.45;;;150.05;;
20443;SDS011;10381;53.730;10.010;2022-12-15T09:47:57;165.13;;;147.07;;
20443;SDS011;10381;53.730;10.010;2022-12-15T09:52:07;163.38;;;144.70;;
20443;SDS011;10381;53.730;10.010;2022-12-15T09:56:17;172.10;;;147.45;;
20443;SDS011;10381;53.730;10.010;2022-12-15T10:00:28;168.57;;;149.32;;
20443;SDS011;10381;53.730;10.010;2022-12-15T10:04:42;176.70;;;157.13;;
20443;SDS011;10381;53.730;10.010;2022-12-15T10:08:54;200.80;;;179.73;;
20443;SDS011;10381;53.730;10.010;2022-12-15T10:12:58;239.75;;;215.75;;
20443;SDS011;10381;53.730;10.010;2022-12-15T10:17:12;283.75;;;256.42;;
20443;SDS011;10381;53.730;10.010;2022-12-15T10:21:20;292.23;;;263.35;;
20443;SDS011;10381;53.730;10.010;2022-12-15T10:25:26;288.48;;;260.35;;
20443;SDS011;10381;53.730;10.010;2022-12-15T10:29:52;273.63;;;246.02;;
20443;SDS011;10381;53.730;10.010;2022-12-15T10:33:55;258.80;;;232.73;;
20443;SDS011;10381;53.730;10.010;2022-12-15T10:38:01;256.60;;;230.73;;
20443;SDS011;10381;53.730;10.010;2022-12-15T10:42:24;272.95;;;247.07;;
20443;SDS011;10381;53.730;10.010;2022-12-15T10:46:26;286.00;;;258.48;;
20443;SDS011;10381;53.730;10.010;2022-12-15T10:50:28;277.48;;;250.65;;
20443;SDS011;10381;53.730;10.010;2022-12-15T10:54:31;246.73;;;222.18;;
20443;SDS011;10381;53.730;10.010;2022-12-15T10:58:44;230.00;;;207.48;;
20443;SDS011;10381;53.730;10.010;2022-12-15T11:02:46;217.77;;;195.02;;
20443;SDS011;10381;53.730;10.010;2022-12-15T11:06:47;206.53;;;184.70;;
20443;SDS011;10381;53.730;10.010;2022-12-15T11:10:55;208.75;;;187.65;;
20443;SDS011;10381;53.730;10.010;2022-12-15T11:23:44;171.05;;;152.73;;
20443;SDS011;10381;53.730;10.010;2022-12-15T11:27:50;165.05;;;147.95;;
20443;SDS011;10381;53.730;10.010;2022-12-15T11:31:55;144.25;;;128.55;;
20443;SDS011;10381;53.730;10.010;2022-12-15T11:36:03;137.52;;;123.43;;
20443;SDS011;10381;53.730;10.010;2022-12-15T11:40:18;122.80;;;109.22;;
20443;SDS011;10381;53.730;10.010;2022-12-15T11:57:23;78.22;;;56.15;;
20443;SDS011;10381;53.730;10.010;2022-12-15T12:01:48;71.95;;;49.75;;
20443;SDS011;10381;53.730;10.010;2022-12-15T12:18:55;60.92;;;47.08;;
20443;SDS011;10381;53.730;10.010;2022-12-15T12:23:08;72.07;;;48.30;;
20443;SDS011;10381;53.730;10.010;2022-12-15T12:27:24;65.10;;;51.33;;
20443;SDS011;10381;53.730;10.010;2022-12-15T12:36:15;60.85;;;39.60;;
20443;SDS011;10381;53.730;10.010;2022-12-15T12:44:37;60.75;;;40.28;;
20443;SDS011;10381;53.730;10.010;2022-12-15T12:48:39;76.35;;;48.15;;
20443;SDS011;10381;53.730;10.010;2022-12-15T12:52:49;78.18;;;53.10;;
20443;SDS011;10381;53.730;10.010;2022-12-15T12:56:52;74.32;;;56.85;;
20443;SDS011;10381;53.730;10.010;2022-12-15T13:01:53;68.97;;;54.67;;
20443;SDS011;10381;53.730;10.010;2022-12-15T13:05:33;73.97;;;52.97;;
20443;SDS011;10381;53.730;10.010;2022-12-15T13:09:40;70.13;;;54.80;;
20443;SDS011;10381;53.730;10.010;2022-12-15T13:13:42;64.43;;;53.53;;
20443;SDS011;10381;53.730;10.010;2022-12-15T13:17:47;65.45;;;51.58;;
20443;SDS011;10381;53.730;10.010;2022-12-15T13:21:52;70.75;;;53.28;;
20443;SDS011;10381;53.730;10.010;2022-12-15T13:30:00;65.72;;;50.55;;
20443;SDS011;10381;53.730;10.010;2022-12-15T13:34:11;67.68;;;55.38;;
20443;SDS011;10381;53.730;10.010;2022-12-15T13:38:17;67.63;;;55.78;;
20443;SDS011;10381;53.730;10.010;2022-12-15T13:42:23;66.05;;;55.53;;
20443;SDS011;10381;53.730;10.010;2022-12-15T13:46:25;59.90;;;51.55;;
20443;SDS011;10381;53.730;10.010;2022-12-15T13:50:32;61.70;;;51.92;;
20443;SDS011;10381;53.730;10.010;2022-12-15T13:54:51;65.82;;;51.67;;
20443;SDS011;10381;53.730;10.010;2022-12-15T13:58:58;63.80;;;52.45;;
20443;SDS011;10381;53.730;10.010;2022-12-15T14:03:06;72.30;;;56.50;;
20443;SDS011;10381;53.730;10.010;2022-12-15T14:07:10;66.60;;;55.58;;
20443;SDS011;10381;53.730;10.010;2022-12-15T14:11:13;73.75;;;56.85;;
20443;SDS011;10381;53.730;10.010;2022-12-15T14:15:23;69.35;;;55.83;;
20443;SDS011;10381;53.730;10.010;2022-12-15T14:19:36;76.65;;;63.60;;
20443;SDS011;10381;53.730;10.010;2022-12-15T14:23:40;77.90;;;64.13;;
20443;SDS011;10381;53.730;10.010;2022-12-15T14:27:42;72.78;;;60.08;;
20443;SDS011;10381;53.730;10.010;2022-12-15T14:31:47;78.70;;;65.45;;
20443;SDS011;10381;53.730;10.010;2022-12-15T14:35:51;76.05;;;67.78;;
20443;SDS011;10381;53.730;10.010;2022-12-15T14:39:55;75.35;;;67.00;;
20443;SDS011;10381;53.730;10.010;2022-12-15T14:43:56;94.15;;;78.97;;
20443;SDS011;10381;53.730;10.010;2022-12-15T14:48:07;86.10;;;77.05;;
20443;SDS011;10381;53.730;10.010;2022-12-15T14:52:16;93.93;;;83.82;;
20443;SDS011;10381;53.730;10.010;2022-12-15T14:56:27;91.93;;;77.05;;
20443;SDS011;10381;53.730;10.010;2022-12-15T15:00:33;95.32;;;82.13;;
20443;SDS011;10381;53.730;10.010;2022-12-15T15:04:35;95.38;;;84.90;;
20443;SDS011;10381;53.730;10.010;2022-12-15T15:08:41;93.70;;;83.50;;
20443;SDS011;10381;53.730;10.010;2022-12-15T15:12:46;108.13;;;97.55;;
20443;SDS011;10381;53.730;10.010;2022-12-15T15:17:07;108.55;;;97.82;;
20443;SDS011;10381;53.730;10.010;2022-12-15T15:21:14;118.53;;;106.95;;
20443;SDS011;10381;53.730;10.010;2022-12-15T15:29:36;136.98;;;124.00;;
20443;SDS011;10381;53.730;10.010;2022-12-15T15:33:40;146.00;;;130.10;;
20443;SDS011;10381;53.730;10.010;2022-12-15T15:37:40;155.53;;;134.57;;
20443;SDS011;10381;53.730;10.010;2022-12-15T15:41:41;165.45;;;143.65;;
20443;SDS011;10381;53.730;10.010;2022-12-15T15:45:41;171.80;;;147.02;;
20443;SDS011;10381;53.730;10.010;2022-12-15T15:49:42;179.15;;;141.30;;
20443;SDS011;10381;53.730;10.010;2022-12-15T15:53:44;158.20;;;134.52;;
20443;SDS011;10381;53.730;10.010;2022-12-15T15:57:44;166.63;;;144.23;;
20443;SDS011;10381;53.730;10.010;2022-12-15T16:01:46;165.53;;;147.07;;
20443;SDS011;10381;53.730;10.010;2022-12-15T16:05:51;168.48;;;150.07;;
20443;SDS011;10381;53.730;10.010;2022-12-15T16:09:52;157.57;;;140.77;;
20443;SDS011;10381;53.730;10.010;2022-12-15T16:13:53;150.82;;;134.05;;
20443;SDS011;10381;53.730;10.010;2022-12-15T16:17:53;139.95;;;125.30;;
20443;SDS011;10381;53.730;10.010;2022-12-15T16:21:54;136.98;;;122.03;;
20443;SDS011;10381;53.730;10.010;2022-12-15T16:25:55;133.87;;;120.17;;
20443;SDS011;10381;53.730;10.010;2022-12-15T16:29:57;122.65;;;109.63;;
20443;SDS011;10381;53.730;10.010;2022-12-15T16:33:57;125.27;;;108.40;;
20443;SDS011;10381;53.730;10.010;2022-12-15T16:37:57;127.97;;;112.00;;
20443;SDS011;10381;53.730;10.010;2022-12-15T16:41:58;115.78;;;103.75;;
20443;SDS011;10381;53.730;10.010;2022-12-15T16:45:58;110.07;;;98.72;;
20443;SDS011;10381;53.730;10.010;2022-12-15T16:49:59;108.70;;;94.47;;
20443;SDS011;10381;53.730;10.010;2022-12-15T16:53:59;102.00;;;91.57;;
20443;SDS011;10381;53.730;10.010;2022-12-15T16:58:03;97.28;;;87.05;;
20443;SDS011;10381;53.730;10.010;2022-12-15T17:02:27;95.68;;;85.68;;
20443;SDS011;10381;53.730;10.010;2022-12-15T17:06:26;95.38;;;84.65;;
20443;SDS011;10381;53.730;10.010;2022-12-15T17:10:27;102.32;;;91.50;;
20443;SDS011;10381;53.730;10.010;2022-12-15T17:14:29;113.50;;;101.18;;
20443;SDS011;10381;53.730;10.010;2022-12-15T17:18:29;114.80;;;102.70;;
20443;SDS011;10381;53.730;10.010;2022-12-15T17:22:29;110.83;;;98.57;;
20443;SDS011;10381;53.730;10.010;2022-12-15T17:26:32;114.97;;;102.60;;
20443;SDS011;10381;53.730;10.010;2022-12-15T17:30:35;116.65;;;104.45;;
20443;SDS011;10381;53.730;10.010;2022-12-15T17:34:36;126.63;;;112.93;;
20443;SDS011;10381;53.730;10.010;2022-12-15T17:38:36;132.50;;;112.30;;
20443;SDS011;10381;53.730;10.010;2022-12-15T17:42:37;120.25;;;107.22;;
20443;SDS011;10381;53.730;10.010;2022-12-15T17:46:37;135.83;;;106.43;;
20443;SDS011;10381;53.730;10.010;2022-12-15T17:50:38;114.43;;;102.57;;
20443;SDS011;10381;53.730;10.010;2022-12-15T17:54:38;122.63;;;109.53;;
20443;SDS011;10381;53.730;10.010;2022-12-15T17:58:39;123.20;;;109.73;;
20443;SDS011;10381;53.730;10.010;2022-12-15T18:02:39;121.63;;;108.40;;
20443;SDS011;10381;53.730;10.010;2022-12-15T18:06:40;123.77;;;108.80;;
20443;SDS011;10381;53.730;10.010;2022-12-15T18:10:42;126.20;;;112.95;;
20443;SDS011;10381;53.730;10.010;2022-12-15T18:14:43;127.38;;;113.88;;
20443;SDS011;10381;53.730;10.010;2022-12-15T18:18:43;124.47;;;111.25;;
20443;SDS011;10381;53.730;10.010;2022-12-15T18:22:46;130.75;;;116.40;;
20443;SDS011;10381;53.730;10.010;2022-12-15T18:26:47;129.90;;;116.68;;
20443;SDS011;10381;53.730;10.010;2022-12-15T18:30:48;132.30;;;113.53;;
20443;SDS011;10381;53.730;10.010;2022-12-15T18:34:50;123.95;;;110.40;;
20443;SDS011;10381;53.730;10.010;2022-12-15T18:38:51;132.23;;;118.20;;
20443;SDS011;10381;53.730;10.010;2022-12-15T18:42:51;128.93;;;115.03;;
20443;SDS011;10381;53.730;10.010;2022-12-15T18:46:53;126.65;;;113.07;;
20443;SDS011;10381;53.730;10.010;2022-12-15T18:50:54;115.18;;;101.70;;
20443;SDS011;10381;53.730;10.010;2022-12-15T18:54:56;116.00;;;104.00;;
20443;SDS011;10381;53.730;10.010;2022-12-15T18:58:56;116.60;;;104.25;;
20443;SDS011;10381;53.730;10.010;2022-12-15T19:02:57;116.40;;;104.33;;
20443;SDS011;10381;53.730;10.010;2022-12-15T19:06:58;119.32;;;102.60;;
20443;SDS011;10381;53.730;10.010;2022-12-15T19:11:12;126.60;;;109.50;;
20443;SDS011;10381;53.730;10.010;2022-12-15T19:15:17;125.35;;;111.68;;
20443;SDS011;10381;53.730;10.010;2022-12-15T19:19:20;137.32;;;111.45;;
20443;SDS011;10381;53.730;10.010;2022-12-15T19:23:39;122.57;;;109.32;;
20443;SDS011;10381;53.730;10.010;2022-12-15T19:27:39;135.83;;;121.33;;
20443;SDS011;10381;53.730;10.010;2022-12-15T19:31:39;132.40;;;118.80;;
20443;SDS011;10381;53.730;10.010;2022-12-15T19:35:40;123.53;;;110.50;;
20443;SDS011;10381;53.730;10.010;2022-12-15T19:39:43;124.18;;;111.05;;
20443;SDS011;10381;53.730;10.010;2022-12-15T19:43:43;139.13;;;124.55;;
20443;SDS011;10381;53.730;10.010;2022-12-15T19:47:44;149.98;;;133.80;;
20443;SDS011;10381;53.730;10.010;2022-12-15T19:51:44;155.05;;;136.48;;
20443;SDS011;10381;53.730;10.010;2022-12-15T19:55:45;158.50;;;142.43;;
20443;SDS011;10381;53.730;10.010;2022-12-15T19:59:45;141.30;;;126.50;;
20443;SDS011;10381;53.730;10.010;2022-12-15T20:03:46;144.45;;;129.60;;
20443;SDS011;10381;53.730;10.010;2022-12-15T20:07:48;153.85;;;137.38;;
20443;SDS011;10381;53.730;10.010;2022-12-15T20:11:50;157.82;;;141.68;;
20443;SDS011;10381;53.730;10.010;2022-12-15T20:15:52;164.38;;;147.52;;
20443;SDS011;10381;53.730;10.010;2022-12-15T20:19:53;153.95;;;138.02;;
20443;SDS011;10381;53.730;10.010;2022-12-15T20:23:58;152.40;;;135.80;;
20443;SDS011;10381;53.730;10.010;2022-12-15T20:28:05;148.73;;;133.48;;
20443;SDS011;10381;53.730;10.010;2022-12-15T20:32:13;157.40;;;141.80;;
20443;SDS011;10381;53.730;10.010;2022-12-15T20:36:17;164.40;;;145.93;;
20443;SDS011;10381;53.730;10.010;2022-12-15T20:40:25;149.40;;;133.93;;
20443;SDS011;10381;53.730;10.010;2022-12-15T20:44:28;144.00;;;128.63;;
20443;SDS011;10381;53.730;10.010;2022-12-15T20:48:28;134.80;;;120.67;;
20443;SDS011;10381;53.730;10.010;2022-12-15T20:52:29;138.88;;;124.25;;
20443;SDS011;10381;53.730;10.010;2022-12-15T20:56:29;137.93;;;123.82;;
20443;SDS011;10381;53.730;10.010;2022-12-15T21:00:31;125.03;;;111.70;;
20443;SDS011;10381;53.730;10.010;2022-12-15T21:04:31;130.20;;;115.15;;
20443;SDS011;10381;53.730;10.010;2022-12-15T21:08:34;121.22;;;107.93;;
20443;SDS011;10381;53.730;10.010;2022-12-15T21:12:34;127.72;;;113.18;;
20443;SDS011;10381;53.730;10.010;2022-12-15T21:16:35;128.48;;;114.22;;
20443;SDS011;10381;53.730;10.010;2022-12-15T21:20:35;155.63;;;135.87;;
20443;SDS011;10381;53.730;10.010;2022-12-15T21:24:37;147.30;;;132.25;;
20443;SDS011;10381;53.730;10.010;2022-12-15T21:28:37;160.27;;;142.98;;
20443;SDS011;10381;53.730;10.010;2022-12-15T21:32:37;161.02;;;143.90;;
20443;SDS011;10381;53.730;10.010;2022-12-15T21:36:38;167.07;;;149.87;;
20443;SDS011;10381;53.730;10.010;2022-12-15T21:40:40;168.07;;;150.43;;
20443;SDS011;10381;53.730;10.010;2022-12-15T21:44:41;173.75;;;155.05;;
20443;SDS011;10381;53.730;10.010;2022-12-15T21:48:42;175.38;;;157.13;;
20443;SDS011;10381;53.730;10.010;2022-12-15T21:53:02;188.48;;;169.85;;
20443;SDS011;10381;53.730;10.010;2022-12-15T21:57:05;182.70;;;163.93;;
20443;SDS011;10381;53.730;10.010;2022-12-15T22:01:11;175.68;;;157.90;;
20443;SDS011;10381;53.730;10.010;2022-12-15T22:05:17;177.15;;;158.88;;
20443;SDS011;10381;53.730;10.010;2022-12-15T22:09:28;172.88;;;155.23;;
20443;SDS011;10381;53.730;10.010;2022-12-15T22:13:28;180.10;;;162.18;;
20443;SDS011;10381;53.730;10.010;2022-12-15T22:17:31;181.88;;;163.13;;
20443;SDS011;10381;53.730;10.010;2022-12-15T22:21:32;190.35;;;170.90;;
20443;SDS011;10381;53.730;10.010;2022-12-15T22:25:32;194.57;;;175.00;;
20443;SDS011;10381;53.730;10.010;2022-12-15T22:29:32;187.83;;;168.20;;
20443;SDS011;10381;53.730;10.010;2022-12-15T22:33:33;195.18;;;174.82;;
20443;SDS011;10381;53.730;10.010;2022-12-15T22:37:33;199.17;;;178.67;;
20443;SDS011;10381;53.730;10.010;2022-12-15T22:41:33;201.00;;;180.98;;
20443;SDS011;10381;53.730;10.010;2022-12-15T22:45:34;215.73;;;195.27;;
20443;SDS011;10381;53.730;10.010;2022-12-15T22:49:34;222.10;;;200.07;;
20443;SDS011;10381;53.730;10.010;2022-12-15T22:53:37;216.52;;;195.50;;
20443;SDS011;10381;53.730;10.010;2022-12-15T22:57:37;220.27;;;197.75;;
20443;SDS011;10381;53.730;10.010;2022-12-15T23:01:38;233.25;;;210.45;;
20443;SDS011;10381;53.730;10.010;2022-12-15T23:05:38;234.80;;;211.27;;
20443;SDS011;10381;53.730;10.010;2022-12-15T23:09:41;218.13;;;195.60;;
20443;SDS011;10381;53.730;10.010;2022-12-15T23:13:41;210.88;;;188.82;;
20443;SDS011;10381;53.730;10.010;2022-12-15T23:17:42;207.60;;;186.50;;
20443;SDS011;10381;53.730;10.010;2022-12-15T23:21:42;206.40;;;185.97;;
20443;SDS011;10381;53.730;10.010;2022-12-15T23:25:42;220.17;;;198.53;;
20443;SDS011;10381;53.730;10.010;2022-12-15T23:29:43;232.23;;;208.60;;
20443;SDS011;10381;53.730;10.010;2022-12-15T23:33:43;239.73;;;216.63;;
20443;SDS011;10381;53.730;10.010;2022-12-15T23:37:44;236.40;;;213.23;;
20443;SDS011;10381;53.730;10.010;2022-12-15T23:41:44;237.33;;;214.00;;
20443;SDS011;10381;53.730;10.010;2022-12-15T23:45:44;230.20;;;206.53;;
20443;SDS011;10381;53.730;10.010;2022-12-15T23:49:45;234.95;;;211.48;;
20443;SDS011;10381;53.730;10.010;2022-12-15T23:53:46;232.70;;;209.30;;
20443;SDS011;10381;53.730;10.010;2022-12-15T23:57:46;233.35;;;209.63;;
